KRKD

Knox County Regional Airport

Rockland, Maine, USA
METAR KRKD 182256Z AUTO VRB04KT 10SM SCT030 OVC080 19/17 A2986 RMK AO2 SLP113 T01940172
Observed Flight Rules
Aug-18 @ 22:56 UTC (51 minutes ago) Visual Flight Rules
Wind Visibility Clouds
Variable at 4 knots 10 miles
  • Scattered at 3,000' AGL
  • Overcast at 8,000' AGL
Temperatures Readings
Current 19°C / 66°F
Dewpoint 17°C / 63°F
Humidity 88%
Altimeter 29.86" Hg
Pressure 1011.3 hPa
Elevation 17
METAR KRKD 182256Z AUTO VRB04KT 10SM SCT030 OVC080 19/17 A2986 RMK AO2 SLP113 T01940172
Observed Flight Rules
Aug-18 @ 22:56 UTC
(51 minutes ago)
VFR
Wind Visibility
Variable at 4 knots 10 miles
Clouds
  • Scattered at 3,000' AGL
  • Overcast at 8,000' AGL
Temperature Dewpoint
19°C / 66°F 17°C / 63°F
Humidity Altimeter Pressure
88% 29.86" Hg 1011.3 hPa